sensor_id;sensor_type;location;lat;lon;timestamp;P1;durP1;ratioP1;P2;durP2;ratioP2
22034;SDS011;11181;51.002;4.356;2023-09-18T00:00:00;6.38;;;4.75;;
22034;SDS011;11181;51.002;4.356;2023-09-18T00:02:29;6.55;;;5.10;;
22034;SDS011;11181;51.002;4.356;2023-09-18T00:04:56;4.85;;;4.38;;
22034;SDS011;11181;51.002;4.356;2023-09-18T00:07:24;7.95;;;5.53;;
22034;SDS011;11181;51.002;4.356;2023-09-18T00:09:52;7.55;;;5.47;;
22034;SDS011;11181;51.002;4.356;2023-09-18T00:12:19;5.75;;;4.50;;
22034;SDS011;11181;51.002;4.356;2023-09-18T00:14:48;8.70;;;5.93;;
22034;SDS011;11181;51.002;4.356;2023-09-18T00:17:16;9.23;;;5.63;;
22034;SDS011;11181;51.002;4.356;2023-09-18T00:19:44;7.50;;;4.80;;
22034;SDS011;11181;51.002;4.356;2023-09-18T00:22:12;8.98;;;4.93;;
22034;SDS011;11181;51.002;4.356;2023-09-18T00:24:39;8.13;;;5.10;;
22034;SDS011;11181;51.002;4.356;2023-09-18T00:27:06;6.80;;;5.10;;
22034;SDS011;11181;51.002;4.356;2023-09-18T00:29:32;8.63;;;5.85;;
22034;SDS011;11181;51.002;4.356;2023-09-18T00:32:01;7.15;;;5.45;;
22034;SDS011;11181;51.002;4.356;2023-09-18T00:34:28;7.72;;;5.38;;
22034;SDS011;11181;51.002;4.356;2023-09-18T00:36:56;7.60;;;5.88;;
22034;SDS011;11181;51.002;4.356;2023-09-18T00:39:24;7.32;;;5.10;;
22034;SDS011;11181;51.002;4.356;2023-09-18T00:41:51;7.28;;;5.47;;
22034;SDS011;11181;51.002;4.356;2023-09-18T00:44:19;5.38;;;4.88;;
22034;SDS011;11181;51.002;4.356;2023-09-18T00:46:47;7.93;;;5.05;;
22034;SDS011;11181;51.002;4.356;2023-09-18T00:49:15;9.00;;;5.95;;
22034;SDS011;11181;51.002;4.356;2023-09-18T00:51:43;12.57;;;6.20;;
22034;SDS011;11181;51.002;4.356;2023-09-18T00:54:12;9.60;;;5.63;;
22034;SDS011;11181;51.002;4.356;2023-09-18T00:56:43;7.32;;;5.15;;
22034;SDS011;11181;51.002;4.356;2023-09-18T00:59:10;6.63;;;5.70;;
22034;SDS011;11181;51.002;4.356;2023-09-18T01:01:39;7.50;;;5.97;;
22034;SDS011;11181;51.002;4.356;2023-09-18T01:04:08;7.53;;;5.65;;
22034;SDS011;11181;51.002;4.356;2023-09-18T01:06:37;7.75;;;5.22;;
22034;SDS011;11181;51.002;4.356;2023-09-18T01:09:04;8.50;;;5.20;;
22034;SDS011;11181;51.002;4.356;2023-09-18T01:11:41;9.48;;;5.60;;
22034;SDS011;11181;51.002;4.356;2023-09-18T01:14:17;10.20;;;5.35;;
22034;SDS011;11181;51.002;4.356;2023-09-18T01:16:53;6.40;;;5.05;;
22034;SDS011;11181;51.002;4.356;2023-09-18T01:19:38;8.40;;;5.45;;
22034;SDS011;11181;51.002;4.356;2023-09-18T01:22:07;8.00;;;5.15;;
22034;SDS011;11181;51.002;4.356;2023-09-18T01:24:37;7.60;;;4.60;;
22034;SDS011;11181;51.002;4.356;2023-09-18T01:27:06;5.47;;;4.45;;
22034;SDS011;11181;51.002;4.356;2023-09-18T01:29:34;6.57;;;4.78;;
22034;SDS011;11181;51.002;4.356;2023-09-18T01:32:02;8.35;;;4.78;;
22034;SDS011;11181;51.002;4.356;2023-09-18T01:34:30;8.25;;;4.18;;
22034;SDS011;11181;51.002;4.356;2023-09-18T01:37:01;4.68;;;4.13;;
22034;SDS011;11181;51.002;4.356;2023-09-18T01:39:28;6.20;;;4.32;;
22034;SDS011;11181;51.002;4.356;2023-09-18T01:41:58;6.90;;;3.58;;
22034;SDS011;11181;51.002;4.356;2023-09-18T01:44:27;4.10;;;3.70;;
22034;SDS011;11181;51.002;4.356;2023-09-18T01:46:54;5.80;;;3.75;;
22034;SDS011;11181;51.002;4.356;2023-09-18T01:49:27;6.28;;;4.03;;
22034;SDS011;11181;51.002;4.356;2023-09-18T01:51:54;5.97;;;3.97;;
22034;SDS011;11181;51.002;4.356;2023-09-18T01:54:21;4.22;;;3.60;;
22034;SDS011;11181;51.002;4.356;2023-09-18T01:56:49;5.45;;;3.70;;
22034;SDS011;11181;51.002;4.356;2023-09-18T01:59:18;6.80;;;3.33;;
22034;SDS011;11181;51.002;4.356;2023-09-18T02:01:45;5.35;;;3.70;;
22034;SDS011;11181;51.002;4.356;2023-09-18T02:04:13;6.18;;;3.13;;
22034;SDS011;11181;51.002;4.356;2023-09-18T02:06:40;4.45;;;3.40;;
22034;SDS011;11181;51.002;4.356;2023-09-18T02:09:07;5.55;;;3.58;;
22034;SDS011;11181;51.002;4.356;2023-09-18T02:11:36;9.38;;;4.22;;
22034;SDS011;11181;51.002;4.356;2023-09-18T02:14:04;4.57;;;3.75;;
22034;SDS011;11181;51.002;4.356;2023-09-18T02:16:33;6.90;;;3.67;;
22034;SDS011;11181;51.002;4.356;2023-09-18T02:19:01;6.85;;;3.22;;
22034;SDS011;11181;51.002;4.356;2023-09-18T02:21:28;6.05;;;3.33;;
22034;SDS011;11181;51.002;4.356;2023-09-18T02:23:56;3.50;;;3.20;;
22034;SDS011;11181;51.002;4.356;2023-09-18T02:26:24;6.05;;;4.00;;
22034;SDS011;11181;51.002;4.356;2023-09-18T02:28:51;6.05;;;5.05;;
22034;SDS011;11181;51.002;4.356;2023-09-18T02:31:19;5.80;;;4.00;;
22034;SDS011;11181;51.002;4.356;2023-09-18T02:33:49;5.32;;;3.95;;
22034;SDS011;11181;51.002;4.356;2023-09-18T02:36:16;7.75;;;4.63;;
22034;SDS011;11181;51.002;4.356;2023-09-18T02:38:43;5.40;;;4.20;;
22034;SDS011;11181;51.002;4.356;2023-09-18T02:41:10;10.02;;;5.47;;
22034;SDS011;11181;51.002;4.356;2023-09-18T02:43:37;4.70;;;4.27;;
22034;SDS011;11181;51.002;4.356;2023-09-18T02:46:04;7.27;;;4.20;;
22034;SDS011;11181;51.002;4.356;2023-09-18T02:48:31;6.87;;;4.83;;
22034;SDS011;11181;51.002;4.356;2023-09-18T02:51:01;8.82;;;4.65;;
22034;SDS011;11181;51.002;4.356;2023-09-18T02:53:28;6.40;;;5.30;;
22034;SDS011;11181;51.002;4.356;2023-09-18T02:55:57;8.67;;;4.97;;
22034;SDS011;11181;51.002;4.356;2023-09-18T02:58:25;5.72;;;4.93;;
22034;SDS011;11181;51.002;4.356;2023-09-18T03:00:54;11.60;;;5.20;;
22034;SDS011;11181;51.002;4.356;2023-09-18T03:03:22;6.63;;;5.10;;
22034;SDS011;11181;51.002;4.356;2023-09-18T03:05:49;10.63;;;5.03;;
22034;SDS011;11181;51.002;4.356;2023-09-18T03:08:17;9.23;;;4.82;;
22034;SDS011;11181;51.002;4.356;2023-09-18T03:10:44;6.43;;;4.80;;
22034;SDS011;11181;51.002;4.356;2023-09-18T03:13:12;8.20;;;5.60;;
22034;SDS011;11181;51.002;4.356;2023-09-18T03:15:41;8.07;;;4.87;;
22034;SDS011;11181;51.002;4.356;2023-09-18T03:18:12;10.02;;;5.28;;
22034;SDS011;11181;51.002;4.356;2023-09-18T03:20:39;5.43;;;3.43;;
22034;SDS011;11181;51.002;4.356;2023-09-18T03:23:06;3.40;;;3.07;;
22034;SDS011;11181;51.002;4.356;2023-09-18T03:25:35;3.93;;;2.60;;
22034;SDS011;11181;51.002;4.356;2023-09-18T03:28:03;2.77;;;2.43;;
22034;SDS011;11181;51.002;4.356;2023-09-18T03:30:30;2.77;;;2.07;;
22034;SDS011;11181;51.002;4.356;2023-09-18T03:32:57;4.27;;;2.20;;
22034;SDS011;11181;51.002;4.356;2023-09-18T03:35:24;4.73;;;2.20;;
22034;SDS011;11181;51.002;4.356;2023-09-18T03:37:51;3.50;;;1.87;;
22034;SDS011;11181;51.002;4.356;2023-09-18T03:40:20;3.87;;;2.70;;
22034;SDS011;11181;51.002;4.356;2023-09-18T03:42:49;3.83;;;2.40;;
22034;SDS011;11181;51.002;4.356;2023-09-18T03:45:17;7.13;;;2.60;;
22034;SDS011;11181;51.002;4.356;2023-09-18T03:47:45;3.07;;;2.47;;
22034;SDS011;11181;51.002;4.356;2023-09-18T03:50:13;3.17;;;2.20;;
22034;SDS011;11181;51.002;4.356;2023-09-18T03:52:40;4.80;;;2.37;;
22034;SDS011;11181;51.002;4.356;2023-09-18T03:55:07;3.63;;;2.20;;
22034;SDS011;11181;51.002;4.356;2023-09-18T03:57:34;4.97;;;2.30;;
22034;SDS011;11181;51.002;4.356;2023-09-18T04:00:04;3.27;;;2.50;;
22034;SDS011;11181;51.002;4.356;2023-09-18T04:02:33;3.60;;;2.30;;
22034;SDS011;11181;51.002;4.356;2023-09-18T04:05:00;2.83;;;2.30;;
22034;SDS011;11181;51.002;4.356;2023-09-18T04:07:28;6.27;;;2.30;;
22034;SDS011;11181;51.002;4.356;2023-09-18T04:09:56;5.10;;;2.60;;
22034;SDS011;11181;51.002;4.356;2023-09-18T04:12:24;3.13;;;2.00;;
22034;SDS011;11181;51.002;4.356;2023-09-18T04:14:51;3.47;;;1.90;;
22034;SDS011;11181;51.002;4.356;2023-09-18T04:17:19;4.27;;;2.10;;
22034;SDS011;11181;51.002;4.356;2023-09-18T04:19:47;5.83;;;2.50;;
22034;SDS011;11181;51.002;4.356;2023-09-18T04:22:14;3.27;;;1.90;;
22034;SDS011;11181;51.002;4.356;2023-09-18T04:24:40;3.47;;;2.07;;
22034;SDS011;11181;51.002;4.356;2023-09-18T04:27:08;3.73;;;2.40;;
22034;SDS011;11181;51.002;4.356;2023-09-18T04:29:35;7.00;;;2.30;;
22034;SDS011;11181;51.002;4.356;2023-09-18T04:32:03;2.63;;;2.00;;
22034;SDS011;11181;51.002;4.356;2023-09-18T04:34:32;3.80;;;2.10;;
22034;SDS011;11181;51.002;4.356;2023-09-18T04:37:00;4.70;;;2.13;;
22034;SDS011;11181;51.002;4.356;2023-09-18T04:39:28;4.33;;;2.13;;
22034;SDS011;11181;51.002;4.356;2023-09-18T04:41:58;4.17;;;2.07;;
22034;SDS011;11181;51.002;4.356;2023-09-18T04:44:28;3.00;;;1.40;;
22034;SDS011;11181;51.002;4.356;2023-09-18T04:46:55;2.83;;;1.93;;
22034;SDS011;11181;51.002;4.356;2023-09-18T04:49:23;3.63;;;1.70;;
22034;SDS011;11181;51.002;4.356;2023-09-18T04:51:52;3.23;;;1.70;;
22034;SDS011;11181;51.002;4.356;2023-09-18T04:54:18;3.77;;;1.50;;
22034;SDS011;11181;51.002;4.356;2023-09-18T04:56:45;2.50;;;1.57;;
22034;SDS011;11181;51.002;4.356;2023-09-18T04:59:13;3.90;;;1.50;;
22034;SDS011;11181;51.002;4.356;2023-09-18T05:01:41;2.60;;;1.57;;
22034;SDS011;11181;51.002;4.356;2023-09-18T05:04:09;1.40;;;1.30;;
22034;SDS011;11181;51.002;4.356;2023-09-18T05:06:35;2.60;;;1.77;;
22034;SDS011;11181;51.002;4.356;2023-09-18T05:09:05;3.70;;;1.50;;
22034;SDS011;11181;51.002;4.356;2023-09-18T05:11:32;2.17;;;1.40;;
22034;SDS011;11181;51.002;4.356;2023-09-18T05:13:59;2.30;;;1.60;;
22034;SDS011;11181;51.002;4.356;2023-09-18T05:16:26;4.57;;;1.90;;
22034;SDS011;11181;51.002;4.356;2023-09-18T05:18:54;2.37;;;1.40;;
22034;SDS011;11181;51.002;4.356;2023-09-18T05:21:20;2.10;;;1.20;;
22034;SDS011;11181;51.002;4.356;2023-09-18T05:23:50;1.90;;;1.30;;
22034;SDS011;11181;51.002;4.356;2023-09-18T05:26:18;3.23;;;1.40;;
22034;SDS011;11181;51.002;4.356;2023-09-18T05:28:48;1.60;;;1.50;;
22034;SDS011;11181;51.002;4.356;2023-09-18T05:31:15;1.27;;;1.13;;
22034;SDS011;11181;51.002;4.356;2023-09-18T05:33:42;1.57;;;1.27;;
22034;SDS011;11181;51.002;4.356;2023-09-18T05:36:09;1.53;;;1.30;;
22034;SDS011;11181;51.002;4.356;2023-09-18T05:38:35;3.17;;;1.23;;
22034;SDS011;11181;51.002;4.356;2023-09-18T05:41:02;2.30;;;1.13;;
22034;SDS011;11181;51.002;4.356;2023-09-18T05:43:31;3.40;;;1.70;;
22034;SDS011;11181;51.002;4.356;2023-09-18T05:46:00;3.13;;;1.50;;
22034;SDS011;11181;51.002;4.356;2023-09-18T05:48:27;2.27;;;1.27;;
22034;SDS011;11181;51.002;4.356;2023-09-18T05:50:54;4.73;;;1.70;;
22034;SDS011;11181;51.002;4.356;2023-09-18T05:53:22;4.77;;;1.70;;
22034;SDS011;11181;51.002;4.356;2023-09-18T05:55:49;1.77;;;1.40;;
22034;SDS011;11181;51.002;4.356;2023-09-18T05:58:16;4.70;;;1.50;;
22034;SDS011;11181;51.002;4.356;2023-09-18T06:00:48;6.60;;;1.60;;
22034;SDS011;11181;51.002;4.356;2023-09-18T06:03:15;2.27;;;1.30;;
22034;SDS011;11181;51.002;4.356;2023-09-18T06:05:44;2.73;;;1.30;;
22034;SDS011;11181;51.002;4.356;2023-09-18T06:08:11;3.50;;;1.47;;
22034;SDS011;11181;51.002;4.356;2023-09-18T06:10:38;3.70;;;1.40;;
22034;SDS011;11181;51.002;4.356;2023-09-18T06:13:05;1.63;;;1.53;;
22034;SDS011;11181;51.002;4.356;2023-09-18T06:15:31;2.77;;;1.50;;
22034;SDS011;11181;51.002;4.356;2023-09-18T06:17:59;6.00;;;2.13;;
22034;SDS011;11181;51.002;4.356;2023-09-18T06:20:27;2.10;;;1.40;;
22034;SDS011;11181;51.002;4.356;2023-09-18T06:22:55;5.20;;;1.73;;
22034;SDS011;11181;51.002;4.356;2023-09-18T06:25:22;2.63;;;1.40;;
22034;SDS011;11181;51.002;4.356;2023-09-18T06:27:50;2.83;;;1.30;;
22034;SDS011;11181;51.002;4.356;2023-09-18T06:30:25;3.00;;;1.47;;
22034;SDS011;11181;51.002;4.356;2023-09-18T06:33:23;5.17;;;1.77;;
22034;SDS011;11181;51.002;4.356;2023-09-18T06:35:58;5.27;;;1.30;;
22034;SDS011;11181;51.002;4.356;2023-09-18T06:38:26;2.13;;;1.40;;
22034;SDS011;11181;51.002;4.356;2023-09-18T06:40:54;4.80;;;1.50;;
22034;SDS011;11181;51.002;4.356;2023-09-18T06:43:22;13.40;;;1.70;;
22034;SDS011;11181;51.002;4.356;2023-09-18T06:45:50;2.50;;;1.63;;
22034;SDS011;11181;51.002;4.356;2023-09-18T06:48:24;2.43;;;1.87;;
22034;SDS011;11181;51.002;4.356;2023-09-18T06:50:58;3.60;;;2.53;;
22034;SDS011;11181;51.002;4.356;2023-09-18T06:53:28;3.17;;;1.80;;
22034;SDS011;11181;51.002;4.356;2023-09-18T06:56:02;2.00;;;1.50;;
22034;SDS011;11181;51.002;4.356;2023-09-18T06:58:45;3.90;;;1.97;;
22034;SDS011;11181;51.002;4.356;2023-09-18T07:01:17;2.40;;;1.73;;
22034;SDS011;11181;51.002;4.356;2023-09-18T07:03:49;2.63;;;1.60;;
22034;SDS011;11181;51.002;4.356;2023-09-18T07:06:20;5.43;;;2.20;;
22034;SDS011;11181;51.002;4.356;2023-09-18T07:08:47;3.07;;;1.73;;
22034;SDS011;11181;51.002;4.356;2023-09-18T07:11:17;3.47;;;1.80;;
22034;SDS011;11181;51.002;4.356;2023-09-18T07:13:47;8.77;;;2.50;;
22034;SDS011;11181;51.002;4.356;2023-09-18T07:16:17;3.07;;;2.07;;
22034;SDS011;11181;51.002;4.356;2023-09-18T07:18:45;2.90;;;1.77;;
22034;SDS011;11181;51.002;4.356;2023-09-18T07:21:16;2.67;;;1.87;;
22034;SDS011;11181;51.002;4.356;2023-09-18T07:23:46;3.40;;;2.10;;
22034;SDS011;11181;51.002;4.356;2023-09-18T07:26:16;2.40;;;2.00;;
22034;SDS011;11181;51.002;4.356;2023-09-18T07:28:44;3.13;;;2.00;;
22034;SDS011;11181;51.002;4.356;2023-09-18T07:31:14;2.80;;;1.90;;
22034;SDS011;11181;51.002;4.356;2023-09-18T07:33:43;4.90;;;2.13;;
22034;SDS011;11181;51.002;4.356;2023-09-18T07:36:11;3.90;;;2.23;;
22034;SDS011;11181;51.002;4.356;2023-09-18T07:38:41;3.57;;;2.50;;
22034;SDS011;11181;51.002;4.356;2023-09-18T07:41:08;3.57;;;1.90;;
22034;SDS011;11181;51.002;4.356;2023-09-18T07:43:35;3.90;;;1.80;;
22034;SDS011;11181;51.002;4.356;2023-09-18T07:46:05;4.07;;;2.03;;
22034;SDS011;11181;51.002;4.356;2023-09-18T07:48:32;4.40;;;1.80;;
22034;SDS011;11181;51.002;4.356;2023-09-18T07:51:00;3.17;;;2.10;;
22034;SDS011;11181;51.002;4.356;2023-09-18T07:53:27;2.40;;;1.70;;
22034;SDS011;11181;51.002;4.356;2023-09-18T07:55:57;3.87;;;2.33;;
22034;SDS011;11181;51.002;4.356;2023-09-18T07:58:24;4.57;;;1.90;;
22034;SDS011;11181;51.002;4.356;2023-09-18T08:00:53;4.70;;;2.57;;
22034;SDS011;11181;51.002;4.356;2023-09-18T08:03:22;3.97;;;2.10;;
22034;SDS011;11181;51.002;4.356;2023-09-18T08:05:49;4.27;;;1.80;;
22034;SDS011;11181;51.002;4.356;2023-09-18T08:08:18;6.40;;;1.93;;
22034;SDS011;11181;51.002;4.356;2023-09-18T08:10:45;3.13;;;1.93;;
22034;SDS011;11181;51.002;4.356;2023-09-18T08:13:14;2.73;;;2.00;;
22034;SDS011;11181;51.002;4.356;2023-09-18T08:15:41;3.67;;;2.23;;
22034;SDS011;11181;51.002;4.356;2023-09-18T08:18:08;5.37;;;2.40;;
22034;SDS011;11181;51.002;4.356;2023-09-18T08:20:35;2.77;;;2.10;;
22034;SDS011;11181;51.002;4.356;2023-09-18T08:23:03;4.30;;;2.07;;
22034;SDS011;11181;51.002;4.356;2023-09-18T08:25:32;3.90;;;2.07;;
22034;SDS011;11181;51.002;4.356;2023-09-18T08:27:58;12.60;;;2.50;;
22034;SDS011;11181;51.002;4.356;2023-09-18T08:30:28;5.07;;;2.30;;
22034;SDS011;11181;51.002;4.356;2023-09-18T08:32:57;6.10;;;2.90;;
22034;SDS011;11181;51.002;4.356;2023-09-18T08:35:25;3.07;;;2.00;;
22034;SDS011;11181;51.002;4.356;2023-09-18T08:37:54;3.97;;;2.73;;
22034;SDS011;11181;51.002;4.356;2023-09-18T08:40:22;2.73;;;2.40;;
22034;SDS011;11181;51.002;4.356;2023-09-18T08:42:51;4.40;;;2.57;;
22034;SDS011;11181;51.002;4.356;2023-09-18T08:45:22;3.43;;;2.17;;
22034;SDS011;11181;51.002;4.356;2023-09-18T08:48:04;4.40;;;2.13;;
22034;SDS011;11181;51.002;4.356;2023-09-18T08:50:34;5.47;;;2.50;;
22034;SDS011;11181;51.002;4.356;2023-09-18T08:53:02;4.47;;;2.60;;
22034;SDS011;11181;51.002;4.356;2023-09-18T08:55:34;4.47;;;2.60;;
22034;SDS011;11181;51.002;4.356;2023-09-18T08:58:01;6.33;;;2.80;;
22034;SDS011;11181;51.002;4.356;2023-09-18T09:00:36;6.23;;;2.90;;
22034;SDS011;11181;51.002;4.356;2023-09-18T09:03:11;6.07;;;2.83;;
22034;SDS011;11181;51.002;4.356;2023-09-18T09:05:56;3.67;;;2.70;;
22034;SDS011;11181;51.002;4.356;2023-09-18T09:08:35;5.97;;;2.87;;
22034;SDS011;11181;51.002;4.356;2023-09-18T09:11:05;4.87;;;2.80;;
22034;SDS011;11181;51.002;4.356;2023-09-18T09:13:33;4.33;;;2.27;;
22034;SDS011;11181;51.002;4.356;2023-09-18T09:16:01;6.63;;;2.40;;
22034;SDS011;11181;51.002;4.356;2023-09-18T09:18:30;5.17;;;2.93;;
22034;SDS011;11181;51.002;4.356;2023-09-18T09:20:59;3.30;;;2.63;;
22034;SDS011;11181;51.002;4.356;2023-09-18T09:23:29;5.37;;;2.70;;
22034;SDS011;11181;51.002;4.356;2023-09-18T09:26:13;6.73;;;3.03;;
22034;SDS011;11181;51.002;4.356;2023-09-18T09:28:41;4.03;;;2.37;;
22034;SDS011;11181;51.002;4.356;2023-09-18T09:31:09;6.20;;;2.87;;
22034;SDS011;11181;51.002;4.356;2023-09-18T09:33:38;12.03;;;2.77;;
22034;SDS011;11181;51.002;4.356;2023-09-18T09:36:06;6.47;;;2.90;;
22034;SDS011;11181;51.002;4.356;2023-09-18T09:38:34;5.07;;;2.70;;
22034;SDS011;11181;51.002;4.356;2023-09-18T09:41:02;5.57;;;2.13;;
22034;SDS011;11181;51.002;4.356;2023-09-18T09:43:32;5.73;;;2.60;;
22034;SDS011;11181;51.002;4.356;2023-09-18T09:45:59;4.57;;;2.60;;
22034;SDS011;11181;51.002;4.356;2023-09-18T09:48:28;3.13;;;2.90;;
22034;SDS011;11181;51.002;4.356;2023-09-18T09:50:58;6.33;;;2.37;;
22034;SDS011;11181;51.002;4.356;2023-09-18T09:53:42;9.60;;;3.23;;
22034;SDS011;11181;51.002;4.356;2023-09-18T09:56:10;5.77;;;2.37;;
22034;SDS011;11181;51.002;4.356;2023-09-18T09:58:38;5.90;;;3.00;;
22034;SDS011;11181;51.002;4.356;2023-09-18T10:01:09;7.60;;;4.10;;
22034;SDS011;11181;51.002;4.356;2023-09-18T10:03:44;5.00;;;2.80;;
22034;SDS011;11181;51.002;4.356;2023-09-18T10:06:13;8.33;;;3.40;;
22034;SDS011;11181;51.002;4.356;2023-09-18T10:08:40;5.07;;;3.23;;
22034;SDS011;11181;51.002;4.356;2023-09-18T10:11:08;7.13;;;4.10;;
22034;SDS011;11181;51.002;4.356;2023-09-18T10:13:42;3.80;;;3.17;;
22034;SDS011;11181;51.002;4.356;2023-09-18T10:16:14;5.50;;;3.03;;
22034;SDS011;11181;51.002;4.356;2023-09-18T10:18:47;7.17;;;3.37;;
22034;SDS011;11181;51.002;4.356;2023-09-18T10:21:24;4.50;;;3.20;;
22034;SDS011;11181;51.002;4.356;2023-09-18T10:23:58;4.50;;;3.33;;
22034;SDS011;11181;51.002;4.356;2023-09-18T10:26:32;5.83;;;3.30;;
22034;SDS011;11181;51.002;4.356;2023-09-18T10:29:04;5.40;;;3.63;;
22034;SDS011;11181;51.002;4.356;2023-09-18T10:31:34;9.10;;;4.00;;
22034;SDS011;11181;51.002;4.356;2023-09-18T10:34:02;6.23;;;3.53;;
22034;SDS011;11181;51.002;4.356;2023-09-18T10:36:33;3.63;;;2.83;;
22034;SDS011;11181;51.002;4.356;2023-09-18T10:39:01;6.67;;;3.27;;
22034;SDS011;11181;51.002;4.356;2023-09-18T10:41:33;5.87;;;2.80;;
22034;SDS011;11181;51.002;4.356;2023-09-18T10:44:01;3.37;;;2.97;;
22034;SDS011;11181;51.002;4.356;2023-09-18T10:46:30;5.00;;;2.93;;
22034;SDS011;11181;51.002;4.356;2023-09-18T10:48:58;3.43;;;2.57;;
22034;SDS011;11181;51.002;4.356;2023-09-18T10:51:28;3.10;;;2.27;;
22034;SDS011;11181;51.002;4.356;2023-09-18T10:53:59;9.53;;;2.80;;
22034;SDS011;11181;51.002;4.356;2023-09-18T10:56:26;4.83;;;2.17;;
22034;SDS011;11181;51.002;4.356;2023-09-18T10:58:56;8.30;;;2.67;;
22034;SDS011;11181;51.002;4.356;2023-09-18T11:01:25;3.45;;;2.22;;
22034;SDS011;11181;51.002;4.356;2023-09-18T11:03:57;4.72;;;2.75;;
22034;SDS011;11181;51.002;4.356;2023-09-18T11:06:26;3.45;;;2.20;;
22034;SDS011;11181;51.002;4.356;2023-09-18T11:09:00;8.15;;;2.88;;
22034;SDS011;11181;51.002;4.356;2023-09-18T11:11:29;4.55;;;2.65;;
22034;SDS011;11181;51.002;4.356;2023-09-18T11:13:58;4.22;;;2.58;;
22034;SDS011;11181;51.002;4.356;2023-09-18T11:16:34;4.18;;;2.58;;
22034;SDS011;11181;51.002;4.356;2023-09-18T11:19:12;6.07;;;2.65;;
22034;SDS011;11181;51.002;4.356;2023-09-18T11:21:44;2.47;;;2.28;;
22034;SDS011;11181;51.002;4.356;2023-09-18T11:24:17;4.95;;;2.88;;
22034;SDS011;11181;51.002;4.356;2023-09-18T11:26:45;5.03;;;2.92;;
22034;SDS011;11181;51.002;4.356;2023-09-18T11:29:14;2.75;;;2.05;;
22034;SDS011;11181;51.002;4.356;2023-09-18T11:31:45;6.78;;;3.00;;
22034;SDS011;11181;51.002;4.356;2023-09-18T11:34:14;6.25;;;2.80;;
22034;SDS011;11181;51.002;4.356;2023-09-18T11:36:45;2.42;;;1.90;;
22034;SDS011;11181;51.002;4.356;2023-09-18T11:39:12;4.10;;;2.38;;
22034;SDS011;11181;51.002;4.356;2023-09-18T11:41:41;6.45;;;2.03;;
22034;SDS011;11181;51.002;4.356;2023-09-18T11:47:01;6.55;;;2.33;;
22034;SDS011;11181;51.002;4.356;2023-09-18T11:49:29;4.28;;;2.60;;
22034;SDS011;11181;51.002;4.356;2023-09-18T11:51:57;2.65;;;2.05;;
22034;SDS011;11181;51.002;4.356;2023-09-18T11:54:26;7.40;;;2.60;;
22034;SDS011;11181;51.002;4.356;2023-09-18T11:56:58;3.42;;;1.85;;
22034;SDS011;11181;51.002;4.356;2023-09-18T11:59:33;8.93;;;2.22;;
22034;SDS011;11181;51.002;4.356;2023-09-18T12:02:02;6.07;;;2.10;;
22034;SDS011;11181;51.002;4.356;2023-09-18T12:04:31;3.53;;;1.92;;
22034;SDS011;11181;51.002;4.356;2023-09-18T12:07:01;2.75;;;1.77;;
22034;SDS011;11181;51.002;4.356;2023-09-18T12:09:33;3.13;;;1.73;;
22034;SDS011;11181;51.002;4.356;2023-09-18T12:12:04;3.80;;;2.22;;
22034;SDS011;11181;51.002;4.356;2023-09-18T12:14:33;4.25;;;2.17;;
22034;SDS011;11181;51.002;4.356;2023-09-18T12:17:00;2.20;;;1.95;;
22034;SDS011;11181;51.002;4.356;2023-09-18T12:19:29;3.00;;;1.90;;
22034;SDS011;11181;51.002;4.356;2023-09-18T12:21:59;5.57;;;2.08;;
22034;SDS011;11181;51.002;4.356;2023-09-18T12:24:26;4.47;;;2.55;;
22034;SDS011;11181;51.002;4.356;2023-09-18T12:26:54;1.98;;;1.58;;
22034;SDS011;11181;51.002;4.356;2023-09-18T12:29:22;3.65;;;1.60;;
22034;SDS011;11181;51.002;4.356;2023-09-18T12:31:51;5.28;;;1.60;;
22034;SDS011;11181;51.002;4.356;2023-09-18T12:34:18;4.22;;;1.75;;
22034;SDS011;11181;51.002;4.356;2023-09-18T12:36:46;5.05;;;1.65;;
22034;SDS011;11181;51.002;4.356;2023-09-18T12:39:14;3.40;;;1.73;;
22034;SDS011;11181;51.002;4.356;2023-09-18T12:41:41;1.75;;;1.30;;
22034;SDS011;11181;51.002;4.356;2023-09-18T12:44:09;4.38;;;1.70;;
22034;SDS011;11181;51.002;4.356;2023-09-18T12:46:38;2.47;;;1.70;;
22034;SDS011;11181;51.002;4.356;2023-09-18T12:49:19;3.90;;;1.80;;
22034;SDS011;11181;51.002;4.356;2023-09-18T12:51:55;2.45;;;1.70;;
22034;SDS011;11181;51.002;4.356;2023-09-18T12:54:36;3.35;;;1.55;;
22034;SDS011;11181;51.002;4.356;2023-09-18T12:57:04;3.35;;;2.10;;
22034;SDS011;11181;51.002;4.356;2023-09-18T12:59:32;2.53;;;1.45;;
22034;SDS011;11181;51.002;4.356;2023-09-18T13:02:02;5.10;;;1.77;;
22034;SDS011;11181;51.002;4.356;2023-09-18T13:04:30;2.85;;;1.50;;
22034;SDS011;11181;51.002;4.356;2023-09-18T13:07:03;2.28;;;1.40;;
22034;SDS011;11181;51.002;4.356;2023-09-18T13:09:32;1.92;;;1.75;;
22034;SDS011;11181;51.002;4.356;2023-09-18T13:12:00;2.00;;;1.75;;
22034;SDS011;11181;51.002;4.356;2023-09-18T13:14:27;2.60;;;1.52;;
22034;SDS011;11181;51.002;4.356;2023-09-18T13:17:00;4.88;;;1.70;;
22034;SDS011;11181;51.002;4.356;2023-09-18T13:19:31;2.95;;;1.70;;
22034;SDS011;11181;51.002;4.356;2023-09-18T13:21:57;2.97;;;1.73;;
22034;SDS011;11181;51.002;4.356;2023-09-18T13:24:25;3.95;;;1.90;;
22034;SDS011;11181;51.002;4.356;2023-09-18T13:26:54;2.38;;;1.30;;
22034;SDS011;11181;51.002;4.356;2023-09-18T13:29:21;2.58;;;1.63;;
22034;SDS011;11181;51.002;4.356;2023-09-18T13:31:49;2.50;;;1.33;;
22034;SDS011;11181;51.002;4.356;2023-09-18T13:34:17;4.00;;;1.55;;
22034;SDS011;11181;51.002;4.356;2023-09-18T13:36:45;2.28;;;1.80;;
22034;SDS011;11181;51.002;4.356;2023-09-18T13:39:12;4.35;;;1.45;;
22034;SDS011;11181;51.002;4.356;2023-09-18T13:41:42;5.35;;;1.77;;
22034;SDS011;11181;51.002;4.356;2023-09-18T13:44:09;1.60;;;1.50;;
22034;SDS011;11181;51.002;4.356;2023-09-18T13:46:37;3.70;;;1.40;;
22034;SDS011;11181;51.002;4.356;2023-09-18T13:49:07;4.47;;;1.70;;
22034;SDS011;11181;51.002;4.356;2023-09-18T13:51:40;4.10;;;1.55;;
22034;SDS011;11181;51.002;4.356;2023-09-18T13:54:08;10.35;;;3.58;;
22034;SDS011;11181;51.002;4.356;2023-09-18T13:56:36;3.20;;;1.33;;
22034;SDS011;11181;51.002;4.356;2023-09-18T13:59:03;1.55;;;1.13;;
22034;SDS011;11181;51.002;4.356;2023-09-18T14:01:30;4.25;;;1.33;;
22034;SDS011;11181;51.002;4.356;2023-09-18T14:03:57;5.95;;;2.20;;
22034;SDS011;11181;51.002;4.356;2023-09-18T14:06:24;4.07;;;2.33;;
22034;SDS011;11181;51.002;4.356;2023-09-18T14:08:51;2.08;;;1.15;;
22034;SDS011;11181;51.002;4.356;2023-09-18T14:11:19;4.95;;;1.20;;
22034;SDS011;11181;51.002;4.356;2023-09-18T14:13:46;2.92;;;1.52;;
22034;SDS011;11181;51.002;4.356;2023-09-18T14:16:13;5.38;;;1.55;;
22034;SDS011;11181;51.002;4.356;2023-09-18T14:18:40;2.08;;;1.33;;
22034;SDS011;11181;51.002;4.356;2023-09-18T14:21:07;3.97;;;1.52;;
22034;SDS011;11181;51.002;4.356;2023-09-18T14:23:34;3.72;;;1.48;;
22034;SDS011;11181;51.002;4.356;2023-09-18T14:26:02;5.25;;;1.70;;
22034;SDS011;11181;51.002;4.356;2023-09-18T14:28:30;2.35;;;1.80;;
22034;SDS011;11181;51.002;4.356;2023-09-18T14:30:57;2.90;;;1.40;;
22034;SDS011;11181;51.002;4.356;2023-09-18T14:33:24;5.28;;;1.67;;
22034;SDS011;11181;51.002;4.356;2023-09-18T14:35:52;3.15;;;1.60;;
22034;SDS011;11181;51.002;4.356;2023-09-18T14:38:19;2.70;;;1.77;;
22034;SDS011;11181;51.002;4.356;2023-09-18T14:40:47;3.47;;;1.97;;
22034;SDS011;11181;51.002;4.356;2023-09-18T14:43:17;2.67;;;1.40;;
22034;SDS011;11181;51.002;4.356;2023-09-18T14:45:47;4.13;;;2.07;;
22034;SDS011;11181;51.002;4.356;2023-09-18T14:48:15;5.10;;;2.20;;
22034;SDS011;11181;51.002;4.356;2023-09-18T14:50:45;7.50;;;2.20;;
22034;SDS011;11181;51.002;4.356;2023-09-18T14:53:12;3.97;;;2.13;;
22034;SDS011;11181;51.002;4.356;2023-09-18T14:55:40;4.17;;;2.33;;
22034;SDS011;11181;51.002;4.356;2023-09-18T14:58:07;2.60;;;2.10;;
22034;SDS011;11181;51.002;4.356;2023-09-18T15:00:34;5.20;;;2.30;;